Time;durP1;ratioP1;P1;durP2;ratioP2;P2;SDS_P1;SDS_P2;PMS_P1;PMS_P2;Temp;Humidity;BMP_temperature;BMP_pressure;BME280_temperature;BME280_humidity;BME280_pressure;Samples;Min_cycle;Max_cycle;Signal;HPM_P1;HPM_P2
2022/08/31 00:04:41;;;;;;;5.15;1.80;;;19.70;99.90;;;;;;5043636;28;20613;-57
2022/08/31 00:07:07;;;;;;;3.78;1.60;;;19.70;99.90;;;;;;5041432;28;20038;-58
2022/08/31 00:09:33;;;;;;;4.90;1.90;;;19.80;99.90;;;;;;5040753;28;20440;-58
2022/08/31 00:11:59;;;;;;;5.80;1.65;;;19.60;99.90;;;;;;5038400;28;20136;-56
2022/08/31 00:14:25;;;;;;;2.50;1.70;;;19.70;99.90;;;;;;5038227;28;20399;-57
2022/08/31 00:16:50;;;;;;;4.10;1.90;;;19.70;99.90;;;;;;5036428;28;20404;-56
2022/08/31 00:19:16;;;;;;;5.75;1.65;;;19.60;99.90;;;;;;5040723;28;20041;-57
2022/08/31 00:21:42;;;;;;;6.93;1.88;;;19.60;99.90;;;;;;5047510;28;20040;-57
2022/08/31 00:24:08;;;;;;;3.97;1.90;;;19.60;99.90;;;;;;5041410;28;20048;-56
2022/08/31 00:26:34;;;;;;;3.88;1.92;;;19.40;99.90;;;;;;5042712;28;20037;-58
2022/08/31 00:29:00;;;;;;;2.58;1.70;;;19.40;99.90;;;;;;5043476;28;20029;-58
2022/08/31 00:31:26;;;;;;;2.40;1.70;;;19.40;99.90;;;;;;5042279;28;20086;-57
2022/08/31 00:33:52;;;;;;;3.60;1.67;;;19.40;99.90;;;;;;5041668;28;20033;-58
2022/08/31 00:36:21;;;;;;;6.88;1.80;;;19.40;99.90;;;;;;5032260;28;20037;-57
2022/08/31 00:38:48;;;;;;;2.17;1.60;;;19.40;99.90;;;;;;5043117;28;20028;-58
2022/08/31 00:41:15;;;;;;;1.92;1.48;;;19.40;99.90;;;;;;5039173;28;20043;-57
2022/08/31 00:43:47;;;;;;;2.42;1.80;;;19.20;99.90;;;;;;5037571;28;20040;-57
2022/08/31 00:46:16;;;;;;;5.15;1.90;;;19.10;99.90;;;;;;5043293;28;20551;-56
2022/08/31 00:49:13;;;;;;;2.55;1.45;;;19.10;99.90;;;;;;5046552;28;20056;-56
2022/08/31 00:52:02;;;;;;;5.30;1.60;;;19.10;99.90;;;;;;5041548;28;20040;-56
2022/08/31 00:55:03;;;;;;;3.35;1.60;;;19.30;99.90;;;;;;5041055;28;20056;-57
2022/08/31 00:57:35;;;;;;;3.53;1.60;;;19.10;99.90;;;;;;5041616;28;20041;-57
2022/08/31 01:00:04;;;;;;;2.93;1.83;;;19.00;99.90;;;;;;5040684;28;20123;-58
2022/08/31 01:02:30;;;;;;;4.70;1.70;;;19.00;99.90;;;;;;5039635;28;20403;-57
2022/08/31 01:04:55;;;;;;;4.20;2.00;;;18.90;99.90;;;;;;5042837;28;20041;-56
2022/08/31 01:07:22;;;;;;;2.78;1.67;;;18.90;99.90;;;;;;5043589;28;20412;-57
2022/08/31 01:09:47;;;;;;;4.28;1.90;;;18.90;99.90;;;;;;5042394;28;20043;-56
2022/08/31 01:12:13;;;;;;;7.47;1.67;;;19.00;99.90;;;;;;5038462;28;20394;-58
2022/08/31 01:14:41;;;;;;;2.00;1.42;;;18.80;99.90;;;;;;5041555;28;20029;-56
2022/08/31 01:17:07;;;;;;;4.80;1.42;;;18.80;99.90;;;;;;5042282;28;21217;-57
2022/08/31 01:19:58;;;;;;;2.13;1.50;;;18.70;99.90;;;;;;5038602;28;20038;-58
2022/08/31 01:22:51;;;;;;;3.35;1.60;;;18.70;99.90;;;;;;5038973;28;20041;-58
2022/08/31 01:25:18;;;;;;;3.55;1.60;;;18.80;99.90;;;;;;5039452;28;20029;-57
2022/08/31 01:27:44;;;;;;;4.88;1.80;;;18.80;99.90;;;;;;5044431;28;20459;-57
2022/08/31 01:30:18;;;;;;;3.50;1.50;;;18.70;99.90;;;;;;5039313;28;21330;-57
2022/08/31 01:32:44;;;;;;;4.95;1.60;;;18.70;99.90;;;;;;5044085;28;20055;-58
2022/08/31 01:35:10;;;;;;;2.13;1.50;;;18.70;99.90;;;;;;5038722;28;20034;-58
2022/08/31 01:37:35;;;;;;;3.97;1.50;;;18.80;99.90;;;;;;5040321;28;20041;-58
2022/08/31 01:40:01;;;;;;;2.58;1.33;;;18.70;99.90;;;;;;5042975;28;20123;-57
2022/08/31 01:42:27;;;;;;;1.77;1.30;;;18.70;99.90;;;;;;5036782;28;20451;-56
2022/08/31 01:44:52;;;;;;;3.05;1.40;;;18.70;99.90;;;;;;5050957;28;20044;-57
2022/08/31 01:47:18;;;;;;;4.82;1.50;;;18.50;99.90;;;;;;5039651;28;20059;-58
2022/08/31 01:49:43;;;;;;;2.00;1.27;;;18.70;99.90;;;;;;5050960;28;20065;-56
2022/08/31 01:52:09;;;;;;;2.40;1.60;;;18.90;99.90;;;;;;5037896;28;20025;-58
2022/08/31 01:54:34;;;;;;;4.75;1.60;;;19.00;99.90;;;;;;5040046;28;20032;-55
2022/08/31 01:57:00;;;;;;;3.22;1.55;;;18.70;99.90;;;;;;5040343;28;20037;-56
2022/08/31 01:59:27;;;;;;;5.53;1.80;;;18.60;99.90;;;;;;5041363;28;20401;-58
2022/08/31 02:01:54;;;;;;;1.60;1.33;;;18.70;99.90;;;;;;5039391;28;20040;-57
2022/08/31 02:04:23;;;;;;;4.22;1.50;;;18.70;99.90;;;;;;5041538;28;20421;-58
2022/08/31 02:06:51;;;;;;;2.50;1.50;;;18.50;99.90;;;;;;5044201;28;20572;-58
2022/08/31 02:09:17;;;;;;;4.68;1.58;;;18.40;99.90;;;;;;5041536;28;20512;-57
2022/08/31 02:11:43;;;;;;;4.43;1.40;;;18.50;99.90;;;;;;5043211;28;20464;-58
2022/08/31 02:14:09;;;;;;;2.40;1.67;;;18.80;99.90;;;;;;5039057;28;20043;-58
2022/08/31 02:16:35;;;;;;;2.42;1.40;;;18.80;99.90;;;;;;5036774;28;20516;-57
2022/08/31 02:19:01;;;;;;;4.85;1.50;;;18.70;99.90;;;;;;5041998;28;20029;-58
2022/08/31 02:21:27;;;;;;;4.30;1.48;;;18.90;99.90;;;;;;5043802;28;20041;-58
2022/08/31 02:23:53;;;;;;;4.95;1.58;;;18.90;99.90;;;;;;5041687;28;20436;-58
2022/08/31 02:26:19;;;;;;;1.98;1.48;;;18.90;99.90;;;;;;5046483;28;20032;-57
2022/08/31 02:28:45;;;;;;;2.03;1.45;;;18.60;99.90;;;;;;5037655;28;20986;-56
2022/08/31 02:31:11;;;;;;;4.18;1.70;;;18.70;99.90;;;;;;5036632;28;20029;-57
2022/08/31 02:33:36;;;;;;;4.32;1.52;;;18.70;99.90;;;;;;5043214;28;20045;-58
2022/08/31 02:36:03;;;;;;;2.45;1.60;;;18.50;99.90;;;;;;5036466;28;20109;-55
2022/08/31 02:38:31;;;;;;;2.80;1.58;;;18.50;99.90;;;;;;5038188;28;20138;-57
2022/08/31 02:40:57;;;;;;;5.13;1.70;;;18.40;99.90;;;;;;5042222;28;20709;-55
2022/08/31 02:43:22;;;;;;;3.72;1.50;;;18.40;99.90;;;;;;5034864;28;20132;-57
2022/08/31 02:45:48;;;;;;;6.40;1.70;;;18.40;99.90;;;;;;5043771;28;20037;-58
2022/08/31 02:48:14;;;;;;;3.05;1.70;;;18.40;99.90;;;;;;5040890;28;20098;-57
2022/08/31 02:50:45;;;;;;;3.38;1.63;;;18.40;99.90;;;;;;5042194;28;20049;-57
2022/08/31 02:53:13;;;;;;;4.32;1.35;;;18.50;99.90;;;;;;5045926;28;20573;-58
2022/08/31 02:55:38;;;;;;;2.85;1.30;;;18.60;99.90;;;;;;5042152;28;20550;-58
2022/08/31 02:58:04;;;;;;;3.22;1.50;;;18.60;99.90;;;;;;5047721;28;20043;-57
2022/08/31 03:00:31;;;;;;;6.72;1.50;;;18.30;99.90;;;;;;5040096;28;20034;-58
2022/08/31 03:02:57;;;;;;;2.65;1.73;;;18.20;99.90;;;;;;5047229;28;20289;-58
2022/08/31 03:05:22;;;;;;;3.97;1.50;;;18.30;99.90;;;;;;5036494;28;20514;-57
2022/08/31 03:07:48;;;;;;;1.80;1.35;;;18.30;99.90;;;;;;5046027;28;20032;-57
2022/08/31 03:10:19;;;;;;;3.55;1.38;;;18.30;99.90;;;;;;5040056;28;20033;-55
2022/08/31 03:12:44;;;;;;;2.58;1.55;;;18.30;99.90;;;;;;5042179;28;20095;-58
2022/08/31 03:15:10;;;;;;;3.38;1.50;;;18.10;99.90;;;;;;5037536;28;20041;-58
2022/08/31 03:17:36;;;;;;;3.60;1.45;;;18.20;99.90;;;;;;5040821;28;20043;-56
2022/08/31 03:20:04;;;;;;;2.55;1.40;;;18.40;99.90;;;;;;5034914;28;20055;-57
2022/08/31 03:22:31;;;;;;;4.35;1.45;;;18.30;99.90;;;;;;5045316;28;20040;-57
2022/08/31 03:24:56;;;;;;;5.00;1.60;;;18.10;99.90;;;;;;5041683;28;20069;-57
2022/08/31 03:27:25;;;;;;;3.15;1.35;;;18.10;99.90;;;;;;5042301;28;20148;-58
2022/08/31 03:29:52;;;;;;;2.60;1.50;;;18.10;99.90;;;;;;5038877;28;20052;-56
2022/08/31 03:32:18;;;;;;;4.35;1.67;;;17.90;99.90;;;;;;5037068;28;20044;-56
2022/08/31 03:34:44;;;;;;;2.22;1.20;;;18.00;99.90;;;;;;5042359;28;20535;-55
2022/08/31 03:37:10;;;;;;;3.80;1.60;;;18.00;99.90;;;;;;5038210;28;20044;-56
2022/08/31 03:39:35;;;;;;;2.45;1.80;;;17.80;99.90;;;;;;5041304;28;20127;-57
2022/08/31 03:42:01;;;;;;;4.38;1.80;;;17.60;99.90;;;;;;5039179;28;20033;-58
2022/08/31 03:44:27;;;;;;;2.88;1.70;;;17.60;99.90;;;;;;5040050;28;20644;-57
2022/08/31 03:46:54;;;;;;;3.58;1.58;;;17.60;99.90;;;;;;5044516;28;20063;-57
2022/08/31 03:49:20;;;;;;;3.80;1.85;;;17.50;99.90;;;;;;5042629;28;20080;-56
2022/08/31 03:51:46;;;;;;;4.32;1.63;;;17.60;99.90;;;;;;5040934;28;20033;-56
2022/08/31 03:54:12;;;;;;;3.65;1.63;;;17.40;99.90;;;;;;5044402;28;20045;-57
2022/08/31 03:56:39;;;;;;;4.28;1.70;;;17.40;99.90;;;;;;5042725;28;20064;-57
2022/08/31 03:59:06;;;;;;;2.95;1.70;;;17.60;99.90;;;;;;5049136;28;20136;-55
2022/08/31 04:01:34;;;;;;;3.30;1.70;;;17.60;99.90;;;;;;5041688;28;20029;-58
2022/08/31 04:03:59;;;;;;;5.47;1.80;;;17.50;99.90;;;;;;5045016;28;20040;-57
2022/08/31 04:06:25;;;;;;;3.35;1.40;;;17.60;99.90;;;;;;5040569;28;20082;-57
2022/08/31 04:08:50;;;;;;;1.98;1.70;;;17.60;99.90;;;;;;5048301;28;20052;-57
2022/08/31 04:11:17;;;;;;;6.10;2.00;;;17.30;99.90;;;;;;5037760;28;20048;-56
2022/08/31 04:13:46;;;;;;;2.58;1.50;;;17.30;99.90;;;;;;5043351;28;20083;-57
2022/08/31 04:16:16;;;;;;;10.75;1.80;;;17.20;99.90;;;;;;5044911;28;20080;-57
2022/08/31 04:18:43;;;;;;;3.78;1.75;;;17.10;99.90;;;;;;5044964;28;20060;-57
2022/08/31 04:21:15;;;;;;;3.53;1.60;;;17.20;99.90;;;;;;5043278;28;20041;-55
2022/08/31 04:23:41;;;;;;;3.28;1.63;;;17.40;99.90;;;;;;5043666;28;20040;-58
2022/08/31 04:26:18;;;;;;;3.22;1.70;;;17.40;99.90;;;;;;5034652;28;20041;-56
2022/08/31 04:28:44;;;;;;;4.97;1.67;;;17.40;99.90;;;;;;5044971;28;20397;-58
2022/08/31 04:31:13;;;;;;;5.22;1.50;;;17.20;99.90;;;;;;5045110;28;20120;-57
2022/08/31 04:33:40;;;;;;;4.80;1.50;;;17.20;99.90;;;;;;5041413;28;20321;-58
2022/08/31 04:36:07;;;;;;;2.08;1.23;;;17.30;99.90;;;;;;5039153;28;20420;-55
2022/08/31 04:38:33;;;;;;;3.08;1.85;;;17.10;99.90;;;;;;5042139;28;20496;-57
2022/08/31 04:41:10;;;;;;;4.00;1.80;;;17.00;99.90;;;;;;5038476;28;20040;-57
2022/08/31 04:43:37;;;;;;;2.85;1.73;;;17.00;99.90;;;;;;5046544;28;20044;-58
2022/08/31 04:46:05;;;;;;;24.42;21.08;;;17.00;99.90;;;;;;5043577;28;20037;-56
2022/08/31 04:48:31;;;;;;;13.57;10.85;;;17.00;99.90;;;;;;5042537;28;20063;-56
2022/08/31 04:51:04;;;;;;;5.03;2.63;;;17.00;99.90;;;;;;5043368;28;20044;-56
2022/08/31 04:53:29;;;;;;;3.50;1.70;;;17.10;99.90;;;;;;5040710;28;20112;-59
2022/08/31 04:55:55;;;;;;;3.83;1.90;;;16.90;99.90;;;;;;5047522;28;20174;-59
2022/08/31 04:58:22;;;;;;;3.65;1.60;;;17.00;99.90;;;;;;5045068;28;20381;-61
2022/08/31 05:00:49;;;;;;;3.60;1.70;;;17.10;99.90;;;;;;5044506;28;20068;-61
2022/08/31 05:03:16;;;;;;;2.60;1.70;;;17.00;99.90;;;;;;5042621;28;20032;-61
2022/08/31 05:05:42;;;;;;;4.53;1.98;;;16.80;99.90;;;;;;5041611;28;20041;-60
2022/08/31 05:08:07;;;;;;;3.20;1.90;;;16.90;99.90;;;;;;5039782;28;20041;-58
2022/08/31 05:10:34;;;;;;;6.22;1.90;;;17.00;99.90;;;;;;5043082;28;20144;-61
2022/08/31 05:12:59;;;;;;;5.05;1.95;;;16.80;99.90;;;;;;5042855;28;20047;-61
2022/08/31 05:15:25;;;;;;;10.05;2.35;;;17.00;99.90;;;;;;5046615;28;20038;-59
2022/08/31 05:17:50;;;;;;;4.18;2.00;;;16.80;99.90;;;;;;5036130;28;20041;-59
2022/08/31 05:20:16;;;;;;;3.40;1.88;;;16.80;99.90;;;;;;5042482;28;20277;-58
2022/08/31 05:22:42;;;;;;;2.65;2.00;;;16.80;99.90;;;;;;5039003;28;20033;-60
2022/08/31 05:25:08;;;;;;;6.07;1.83;;;16.70;99.90;;;;;;5040961;28;20040;-59
2022/08/31 05:27:35;;;;;;;5.55;2.20;;;16.70;99.90;;;;;;5036458;28;20387;-60
2022/08/31 05:30:01;;;;;;;5.22;2.20;;;16.90;99.90;;;;;;5038482;28;20179;-58
2022/08/31 05:32:26;;;;;;;7.78;2.22;;;16.90;99.90;;;;;;5040293;28;20723;-59
2022/08/31 05:34:52;;;;;;;5.28;1.92;;;16.80;99.90;;;;;;5040255;28;20044;-60
2022/08/31 05:37:18;;;;;;;60.67;49.45;;;16.70;99.90;;;;;;5033322;28;20052;-61
2022/08/31 05:39:44;;;;;;;9.15;3.45;;;16.80;99.90;;;;;;5040608;28;20033;-59
2022/08/31 05:42:14;;;;;;;9.18;2.22;;;16.80;99.90;;;;;;5038099;28;20127;-58
2022/08/31 05:44:40;;;;;;;6.57;2.20;;;16.80;99.90;;;;;;5042411;28;20091;-58
2022/08/31 05:47:06;;;;;;;10.77;2.08;;;16.90;99.90;;;;;;5040613;28;20427;-59
2022/08/31 05:49:33;;;;;;;4.32;2.00;;;16.90;99.90;;;;;;5042009;28;20106;-59
2022/08/31 05:52:00;;;;;;;3.80;1.98;;;17.00;99.90;;;;;;5039632;28;20094;-58
2022/08/31 05:54:26;;;;;;;5.22;2.05;;;16.80;99.90;;;;;;5040972;28;20201;-59
2022/08/31 05:56:51;;;;;;;6.57;2.05;;;16.70;99.90;;;;;;5037650;28;20094;-58
2022/08/31 05:59:17;;;;;;;6.30;2.28;;;16.70;99.90;;;;;;5042104;28;20032;-59
2022/08/31 06:01:42;;;;;;;7.78;2.25;;;16.80;99.90;;;;;;5040351;28;20063;-58
2022/08/31 06:04:09;;;;;;;3.78;1.95;;;16.70;99.90;;;;;;5040274;28;20484;-57
2022/08/31 06:06:36;;;;;;;3.85;1.90;;;16.70;99.90;;;;;;5041416;28;20052;-58
2022/08/31 06:09:02;;;;;;;10.30;2.25;;;16.60;99.90;;;;;;5041803;28;20041;-55
2022/08/31 06:11:29;;;;;;;6.10;2.13;;;16.70;99.90;;;;;;5041192;28;20083;-60
2022/08/31 06:13:58;;;;;;;7.43;2.33;;;16.70;99.90;;;;;;5040818;28;20048;-58
2022/08/31 06:16:25;;;;;;;6.70;2.33;;;16.70;99.90;;;;;;5036427;28;20037;-59
2022/08/31 06:18:54;;;;;;;7.45;2.42;;;16.90;99.90;;;;;;5042131;28;20547;-60
2022/08/31 06:21:23;;;;;;;7.68;2.30;;;17.00;99.90;;;;;;5036108;28;20570;-60
2022/08/31 06:23:50;;;;;;;6.72;2.33;;;17.10;99.90;;;;;;5042370;28;20115;-59
2022/08/31 06:26:19;;;;;;;4.88;1.90;;;17.00;99.90;;;;;;5035505;28;20029;-58
2022/08/31 06:28:47;;;;;;;8.18;2.50;;;16.90;99.90;;;;;;5042406;28;20041;-57
2022/08/31 06:31:18;;;;;;;3.28;2.03;;;17.00;99.90;;;;;;5053858;28;20029;-60
2022/08/31 06:33:44;;;;;;;8.15;2.38;;;17.20;99.90;;;;;;5041232;28;20033;-59
2022/08/31 06:36:16;;;;;;;7.22;2.42;;;17.30;99.90;;;;;;5040526;28;20064;-59
2022/08/31 06:38:42;;;;;;;7.78;2.42;;;17.20;99.90;;;;;;5037925;28;20430;-60
2022/08/31 06:41:13;;;;;;;8.13;3.00;;;17.40;99.90;;;;;;5044207;28;20091;-57
2022/08/31 06:43:39;;;;;;;10.65;2.35;;;17.50;99.90;;;;;;5035078;28;20190;-59
2022/08/31 06:46:05;;;;;;;5.28;2.38;;;17.60;99.90;;;;;;5041466;28;20116;-60
2022/08/31 06:48:31;;;;;;;4.80;2.28;;;17.50;99.90;;;;;;5039982;28;20037;-59
2022/08/31 06:50:58;;;;;;;6.80;2.20;;;17.40;99.90;;;;;;5042185;28;20029;-60
2022/08/31 06:53:23;;;;;;;6.60;2.20;;;17.40;99.90;;;;;;5043395;28;20025;-59
2022/08/31 06:55:49;;;;;;;8.80;2.40;;;17.50;99.90;;;;;;5041695;28;20033;-56
2022/08/31 06:58:14;;;;;;;6.93;2.10;;;17.50;99.90;;;;;;5044121;28;20033;-59
2022/08/31 07:00:40;;;;;;;7.55;2.40;;;17.40;99.90;;;;;;5041382;28;20044;-60
2022/08/31 07:03:22;;;;;;;6.80;2.10;;;17.50;99.90;;;;;;5039981;28;20025;-59
2022/08/31 07:05:52;;;;;;;7.10;2.22;;;17.50;99.90;;;;;;5047538;28;20037;-60
2022/08/31 07:08:19;;;;;;;3.65;2.05;;;17.70;99.90;;;;;;5041511;28;20508;-60
2022/08/31 07:10:46;;;;;;;5.70;2.38;;;17.80;99.90;;;;;;5036706;28;20037;-61
2022/08/31 07:13:12;;;;;;;6.20;1.90;;;17.90;99.90;;;;;;5043859;28;20742;-60
2022/08/31 07:15:37;;;;;;;7.25;2.42;;;17.90;99.90;;;;;;5039359;28;20041;-60
2022/08/31 07:18:03;;;;;;;3.17;2.10;;;18.10;99.90;;;;;;5039952;28;20440;-59
2022/08/31 07:20:29;;;;;;;7.60;2.50;;;18.20;99.90;;;;;;5040376;28;20037;-60
2022/08/31 07:22:56;;;;;;;6.20;2.40;;;18.20;99.90;;;;;;5041336;28;20068;-60
2022/08/31 07:25:21;;;;;;;8.85;2.50;;;18.40;99.90;;;;;;5043922;28;20044;-60
2022/08/31 07:27:54;;;;;;;14.32;3.88;;;18.50;99.90;;;;;;5046934;28;20040;-59
2022/08/31 07:30:23;;;;;;;6.15;2.60;;;18.10;99.90;;;;;;5044566;28;20404;-59
2022/08/31 07:32:49;;;;;;;8.90;2.70;;;18.00;99.90;;;;;;5041460;28;20049;-60
2022/08/31 07:35:17;;;;;;;6.43;2.30;;;17.90;99.90;;;;;;5042812;28;20068;-59
2022/08/31 07:43:13;;;;;;;6.30;2.75;;;18.60;99.90;;;;;;5044922;28;20131;-59
2022/08/31 07:45:41;;;;;;;6.15;2.63;;;18.80;99.90;;;;;;5045558;28;20119;-60
2022/08/31 07:48:07;;;;;;;11.48;2.60;;;18.80;99.90;;;;;;5047932;28;20037;-59
2022/08/31 07:50:33;;;;;;;4.90;2.40;;;18.70;99.90;;;;;;5043023;28;20451;-59
2022/08/31 07:52:59;;;;;;;7.10;2.50;;;18.60;99.90;;;;;;5045441;28;20045;-59
2022/08/31 07:55:26;;;;;;;8.02;2.70;;;18.50;99.90;;;;;;5038489;28;20113;-60
2022/08/31 07:57:53;;;;;;;12.20;2.78;;;18.80;99.90;;;;;;5047513;28;20044;-58
2022/08/31 08:00:25;;;;;;;6.18;2.50;;;18.80;99.90;;;;;;5045683;28;20387;-59
2022/08/31 08:02:52;;;;;;;6.30;2.70;;;18.70;99.90;;;;;;5041987;28;20140;-60
2022/08/31 08:05:23;;;;;;;5.00;2.65;;;18.60;99.90;;;;;;5044949;28;20507;-60
2022/08/31 08:07:52;;;;;;;9.40;3.05;;;18.60;99.90;;;;;;5043368;28;20470;-59
2022/08/31 08:10:20;;;;;;;6.75;2.83;;;18.90;99.90;;;;;;5046800;28;20037;-59
2022/08/31 08:12:57;;;;;;;8.23;2.33;;;18.90;99.90;;;;;;5047025;28;20120;-60
2022/08/31 08:15:25;;;;;;;5.80;2.97;;;19.10;99.90;;;;;;5043888;28;20581;-60
2022/08/31 08:17:51;;;;;;;7.35;2.88;;;19.20;99.90;;;;;;5043982;28;20037;-60
2022/08/31 08:20:17;;;;;;;10.15;2.75;;;19.30;99.90;;;;;;5046795;28;20110;-60
2022/08/31 08:22:43;;;;;;;9.90;3.30;;;19.50;99.90;;;;;;5046687;28;20326;-61
2022/08/31 08:25:10;;;;;;;8.00;3.05;;;19.30;99.90;;;;;;5047002;28;20041;-58
2022/08/31 08:27:35;;;;;;;5.00;2.40;;;19.50;99.90;;;;;;5046606;28;20037;-61
2022/08/31 08:30:04;;;;;;;5.35;2.58;;;19.70;99.90;;;;;;5045776;28;20124;-60
2022/08/31 08:32:30;;;;;;;11.00;2.50;;;19.60;99.90;;;;;;5043360;28;20120;-59
2022/08/31 08:34:56;;;;;;;8.75;2.65;;;19.30;99.90;;;;;;5051628;28;20041;-58
2022/08/31 08:37:22;;;;;;;6.75;2.50;;;19.10;99.90;;;;;;5046385;28;20048;-58
2022/08/31 08:39:48;;;;;;;21.90;3.83;;;19.40;99.90;;;;;;5046632;28;20427;-59
2022/08/31 08:42:15;;;;;;;359.95;34.95;;;19.40;99.90;;;;;;5045638;28;20037;-59
2022/08/31 08:44:42;;;;;;;14.20;3.35;;;19.40;99.90;;;;;;5050227;28;20025;-60
2022/08/31 08:47:22;;;;;;;108.18;12.18;;;19.30;99.90;;;;;;5044073;28;20071;-58
2022/08/31 08:49:53;;;;;;;15.73;4.70;;;19.30;99.90;;;;;;5045417;28;20036;-58
2022/08/31 08:52:27;;;;;;;23.85;6.03;;;19.10;99.90;;;;;;5045602;28;20376;-57
2022/08/31 08:54:55;;;;;;;10.50;3.15;;;19.00;99.90;;;;;;5044648;28;20035;-59
2022/08/31 08:57:27;;;;;;;6.40;2.67;;;18.80;99.90;;;;;;5042508;28;20033;-60
2022/08/31 09:00:06;;;;;;;7.82;2.72;;;19.20;99.90;;;;;;5046640;28;20040;-59
2022/08/31 09:02:47;;;;;;;5.43;2.65;;;19.30;99.90;;;;;;5049998;28;20610;-60
2022/08/31 09:05:23;;;;;;;12.00;2.60;;;19.30;99.90;;;;;;5049556;28;20483;-59
2022/08/31 09:08:22;;;;;;;7.07;2.78;;;19.60;99.90;;;;;;5045230;28;20021;-59
2022/08/31 09:11:27;;;;;;;6.82;2.47;;;19.50;99.90;;;;;;5039850;28;20506;-59
2022/08/31 09:14:32;;;;;;;10.15;3.00;;;19.80;99.90;;;;;;5041927;28;20021;-59
2022/08/31 09:17:39;;;;;;;6.07;2.60;;;19.70;99.90;;;;;;5039686;28;20094;-60
2022/08/31 09:20:06;;;;;;;6.97;2.70;;;19.70;99.90;;;;;;5045383;28;20116;-59
2022/08/31 09:22:45;;;;;;;9.77;3.20;;;20.00;99.90;;;;;;5043631;28;20059;-59
2022/08/31 09:25:13;;;;;;;8.13;2.90;;;20.00;99.90;;;;;;5045676;28;20037;-59
2022/08/31 09:28:01;;;;;;;7.45;2.92;;;19.90;99.90;;;;;;5046236;28;20074;-59
2022/08/31 09:30:49;;;;;;;6.47;2.60;;;19.90;99.90;;;;;;5046124;28;20033;-59
2022/08/31 09:33:45;;;;;;;6.50;2.97;;;20.10;99.90;;;;;;5043658;28;20503;-57
2022/08/31 09:36:18;;;;;;;6.22;2.67;;;20.30;99.90;;;;;;5046413;28;20098;-59
2022/08/31 09:38:45;;;;;;;5.65;2.67;;;20.50;99.90;;;;;;5045747;28;20037;-59
2022/08/31 09:41:29;;;;;;;8.10;2.70;;;20.70;99.90;;;;;;5051494;28;20033;-59
2022/08/31 09:44:20;;;;;;;10.73;3.00;;;20.70;99.90;;;;;;5045200;28;20031;-60
2022/08/31 09:46:52;;;;;;;7.25;3.00;;;20.90;99.90;;;;;;5044036;28;20387;-58
2022/08/31 09:49:25;;;;;;;4.43;2.85;;;20.90;99.90;;;;;;5043797;28;20563;-61
2022/08/31 09:51:51;;;;;;;8.85;3.15;;;21.10;99.90;;;;;;5040962;28;20385;-60
2022/08/31 09:57:08;;;;;;;7.70;3.20;;;21.20;99.90;;;;;;5040735;28;20530;-61
2022/08/31 09:59:47;;;;;;;9.50;2.70;;;21.10;99.90;;;;;;5045606;28;20082;-60
2022/08/31 10:02:20;;;;;;;6.72;3.15;;;21.10;99.90;;;;;;5040294;28;20095;-61
2022/08/31 10:04:59;;;;;;;8.80;3.45;;;21.20;99.90;;;;;;5042316;28;20029;-60
2022/08/31 10:07:42;;;;;;;6.60;3.05;;;21.30;99.90;;;;;;5042055;28;20029;-60
2022/08/31 10:10:13;;;;;;;11.48;3.80;;;21.30;99.90;;;;;;5044440;28;20033;-57
2022/08/31 10:12:51;;;;;;;13.25;3.60;;;21.40;99.90;;;;;;5044370;28;20028;-61
2022/08/31 10:15:30;;;;;;;8.50;3.08;;;21.60;99.90;;;;;;5046381;28;20124;-60
2022/08/31 10:18:10;;;;;;;8.93;3.35;;;21.60;99.90;;;;;;5042965;28;20045;-60
2022/08/31 10:20:44;;;;;;;10.85;3.78;;;21.60;99.90;;;;;;5041253;28;20506;-59
2022/08/31 10:23:40;;;;;;;14.52;4.18;;;21.70;99.90;;;;;;5043684;28;20543;-60
2022/08/31 10:26:19;;;;;;;7.40;3.25;;;21.60;99.90;;;;;;5047223;28;20080;-60
2022/08/31 10:28:58;;;;;;;8.00;3.00;;;21.60;99.90;;;;;;5042077;28;20480;-60
2022/08/31 10:31:31;;;;;;;5.28;3.17;;;21.70;99.90;;;;;;5042199;28;20467;-60
2022/08/31 10:36:59;;;;;;;6.78;3.83;;;21.70;99.90;;;;;;5047385;28;20090;-61
2022/08/31 10:39:36;;;;;;;9.73;4.07;;;21.60;99.90;;;;;;5044316;28;22181;-61
2022/08/31 10:42:08;;;;;;;5.72;3.30;;;21.80;99.90;;;;;;5031485;28;20036;-60
2022/08/31 10:44:55;;;;;;;7.65;3.33;;;21.80;99.90;;;;;;5047940;28;20025;-61
2022/08/31 10:47:27;;;;;;;6.45;3.15;;;21.90;99.90;;;;;;5044233;28;20095;-61
2022/08/31 10:49:57;;;;;;;10.20;2.92;;;21.90;99.90;;;;;;5045813;28;20107;-60
2022/08/31 10:52:31;;;;;;;7.45;3.70;;;22.10;99.90;;;;;;5047525;28;20033;-61
2022/08/31 10:55:16;;;;;;;8.30;3.88;;;22.30;99.90;;;;;;5050788;28;20029;-60
2022/08/31 10:58:07;;;;;;;7.72;3.60;;;22.40;99.90;;;;;;5051160;28;20033;-61
2022/08/31 11:00:44;;;;;;;6.47;3.55;;;22.50;99.90;;;;;;5048855;28;20033;-61
2022/08/31 11:03:36;;;;;;;10.02;3.00;;;22.50;99.90;;;;;;5052021;28;20489;-60
2022/08/31 11:06:13;;;;;;;4.78;2.97;;;22.50;99.90;;;;;;5038622;28;20403;-60
2022/08/31 11:09:09;;;;;;;9.55;3.28;;;22.40;99.90;;;;;;5048835;28;20116;-61
2022/08/31 11:11:44;;;;;;;8.15;3.10;;;22.70;99.90;;;;;;5043802;28;20032;-59
2022/08/31 11:14:23;;;;;;;8.27;3.70;;;22.90;99.90;;;;;;5053667;28;20754;-61
2022/08/31 11:17:17;;;;;;;7.25;3.50;;;23.00;99.90;;;;;;5036033;28;20535;-61
2022/08/31 11:20:16;;;;;;;6.20;3.22;;;23.10;99.90;;;;;;5040465;28;20494;-61
2022/08/31 11:22:48;;;;;;;5.93;3.30;;;23.10;99.90;;;;;;5048874;28;20021;-61
2022/08/31 11:25:52;;;;;;;6.78;3.55;;;23.40;99.90;;;;;;5049344;28;20032;-61
2022/08/31 11:28:32;;;;;;;7.45;3.50;;;23.30;99.90;;;;;;5047460;28;20025;-60
2022/08/31 11:31:13;;;;;;;8.43;3.20;;;23.20;99.90;;;;;;5043243;28;20091;-60
2022/08/31 11:33:49;;;;;;;7.85;3.67;;;23.10;99.90;;;;;;5048150;28;20029;-60
2022/08/31 11:36:42;;;;;;;9.60;3.67;;;23.10;99.90;;;;;;5045812;28;20357;-61
2022/08/31 11:39:08;;;;;;;5.10;3.35;;;23.00;99.90;;;;;;5045670;28;20075;-61
2022/08/31 11:41:45;;;;;;;6.55;3.33;;;22.90;99.90;;;;;;5053176;28;20029;-60
2022/08/31 11:44:29;;;;;;;6.18;3.50;;;23.10;99.90;;;;;;5050496;28;20562;-61
2022/08/31 11:47:25;;;;;;;8.18;3.88;;;23.30;99.90;;;;;;5043888;28;20633;-61
2022/08/31 11:49:55;;;;;;;9.77;3.38;;;23.30;99.90;;;;;;5047293;28;20381;-61
2022/08/31 11:52:23;;;;;;;8.93;3.90;;;23.50;99.90;;;;;;5049694;28;20093;-62
2022/08/31 11:54:49;;;;;;;6.65;3.08;;;23.80;99.90;;;;;;5046518;28;20061;-61
2022/08/31 11:57:58;;;;;;;9.55;3.33;;;23.50;99.90;;;;;;5039414;28;20124;-62
2022/08/31 12:01:02;;;;;;;7.05;3.22;;;23.50;99.90;;;;;;5047333;28;20119;-62
2022/08/31 12:03:30;;;;;;;;;;;23.30;99.90;;;;;;5012165;28;20559;-62
2022/08/31 12:05:56;;;;;;;6.32;3.03;;;23.30;99.90;;;;;;5047929;28;19971;-61
2022/08/31 12:08:31;;;;;;;7.80;3.00;;;23.10;99.90;;;;;;5042199;28;20041;-61
2022/08/31 12:11:16;;;;;;;5.53;2.90;;;23.10;99.90;;;;;;5044154;28;20644;-61
2022/08/31 12:13:53;;;;;;;7.55;3.03;;;23.00;99.90;;;;;;5044758;28;20415;-62
2022/08/31 12:16:41;;;;;;;3.95;2.72;;;23.30;99.90;;;;;;5048040;28;20037;-62
2022/08/31 12:20:01;;;;;;;6.53;3.38;;;23.40;99.90;;;;;;5041175;28;20040;-62
2022/08/31 12:26:04;;;;;;;6.63;3.22;;;23.50;99.90;;;;;;5049149;28;20032;-61
2022/08/31 12:28:36;;;;;;;7.13;2.95;;;23.30;99.90;;;;;;5048699;28;20036;-61
2022/08/31 12:31:08;;;;;;;6.88;3.20;;;23.30;99.90;;;;;;5065907;28;20089;-62
2022/08/31 12:33:37;;;;;;;4.25;2.90;;;23.40;99.90;;;;;;5070613;28;20032;-62
2022/08/31 12:36:18;;;;;;;5.82;2.83;;;23.40;99.90;;;;;;5048486;28;20032;-61
2022/08/31 12:38:43;;;;;;;5.35;3.20;;;23.50;99.90;;;;;;5067668;28;20036;-62
2022/08/31 12:41:12;;;;;;;8.15;3.08;;;23.40;99.90;;;;;;5070698;28;20032;-62
2022/08/31 12:43:40;;;;;;;8.73;3.00;;;23.50;99.90;;;;;;5065742;28;20120;-62
2022/08/31 12:46:36;;;;;;;9.15;3.05;;;23.50;99.90;;;;;;5071342;28;20616;-62
2022/08/31 12:49:33;;;;;;;7.75;3.30;;;23.50;99.90;;;;;;5065987;28;20028;-61
2022/08/31 12:52:23;;;;;;;6.45;3.33;;;23.70;99.90;;;;;;5069384;28;20033;-62
2022/08/31 12:55:13;;;;;;;7.53;3.05;;;23.80;99.90;;;;;;5055077;28;20924;-62
2022/08/31 12:57:51;;;;;;;6.38;3.50;;;24.00;99.90;;;;;;5053524;28;20033;-62
2022/08/31 13:00:26;;;;;;;7.10;2.95;;;24.00;99.90;;;;;;5053709;28;20610;-62
2022/08/31 13:02:57;;;;;;;6.15;3.03;;;24.00;99.90;;;;;;5040544;28;20038;-62
2022/08/31 13:05:34;;;;;;;3.75;3.13;;;24.20;99.90;;;;;;5049804;28;20056;-62
2022/08/31 13:08:00;;;;;;;7.20;3.50;;;24.20;99.90;;;;;;5045944;28;20102;-62
2022/08/31 13:10:35;;;;;;;3.28;2.83;;;24.20;99.90;;;;;;5044164;28;20215;-62
2022/08/31 13:13:18;;;;;;;6.70;3.17;;;24.20;99.90;;;;;;5050940;28;20472;-62
2022/08/31 13:15:44;;;;;;;;;;;24.10;99.90;;;;;;5038588;28;20088;-62
2022/08/31 13:18:22;;;;;;;6.07;2.97;;;23.90;99.90;;;;;;5041472;28;19924;-62
2022/08/31 13:20:54;;;;;;;3.40;2.70;;;24.00;99.90;;;;;;5049818;28;20399;-62
2022/08/31 13:23:29;;;;;;;6.95;3.42;;;24.10;99.90;;;;;;5045319;28;20714;-62
2022/08/31 13:26:01;;;;;;;5.07;3.38;;;24.10;99.90;;;;;;5042837;28;20037;-62